sensor_id;sensor_type;location;lat;lon;timestamp;pressure;altitude;pressure_sealevel;temperature
43292;BMP280;28754;47.700;7.924;2023-05-07T00:02:27;91275.81;;;15.83
43292;BMP280;28754;47.700;7.924;2023-05-07T00:05:14;91273.38;;;15.86
43292;BMP280;28754;47.700;7.924;2023-05-07T00:08:01;91269.28;;;15.85
43292;BMP280;28754;47.700;7.924;2023-05-07T00:10:48;91266.81;;;15.80
43292;BMP280;28754;47.700;7.924;2023-05-07T00:13:34;91270.44;;;15.79
43292;BMP280;28754;47.700;7.924;2023-05-07T00:16:22;91277.91;;;15.81
43292;BMP280;28754;47.700;7.924;2023-05-07T00:19:09;91264.31;;;15.76
43292;BMP280;28754;47.700;7.924;2023-05-07T00:21:56;91265.47;;;15.83
43292;BMP280;28754;47.700;7.924;2023-05-07T00:24:43;91283.91;;;15.90
43292;BMP280;28754;47.700;7.924;2023-05-07T00:27:30;91271.47;;;15.92
43292;BMP280;28754;47.700;7.924;2023-05-07T00:30:17;91275.88;;;15.91
43292;BMP280;28754;47.700;7.924;2023-05-07T00:33:04;91278.47;;;15.91
43292;BMP280;28754;47.700;7.924;2023-05-07T00:35:51;91273.19;;;15.96
43292;BMP280;28754;47.700;7.924;2023-05-07T00:38:37;91282.25;;;16.07
43292;BMP280;28754;47.700;7.924;2023-05-07T00:41:24;91280.00;;;16.14
43292;BMP280;28754;47.700;7.924;2023-05-07T00:44:13;91272.22;;;16.19
43292;BMP280;28754;47.700;7.924;2023-05-07T00:47:03;91264.63;;;16.22
43292;BMP280;28754;47.700;7.924;2023-05-07T00:49:51;91266.03;;;16.28
43292;BMP280;28754;47.700;7.924;2023-05-07T00:52:38;91258.47;;;16.32
43292;BMP280;28754;47.700;7.924;2023-05-07T00:55:26;91252.38;;;16.28
43292;BMP280;28754;47.700;7.924;2023-05-07T00:58:13;91257.06;;;16.26
43292;BMP280;28754;47.700;7.924;2023-05-07T01:01:00;91253.53;;;16.22
43292;BMP280;28754;47.700;7.924;2023-05-07T01:04:15;91257.34;;;16.24
43292;BMP280;28754;47.700;7.924;2023-05-07T01:11:32;91255.16;;;16.18
43292;BMP280;28754;47.700;7.924;2023-05-07T01:14:20;91265.97;;;16.20
43292;BMP280;28754;47.700;7.924;2023-05-07T01:17:07;91274.38;;;16.25
43292;BMP280;28754;47.700;7.924;2023-05-07T01:19:55;91265.84;;;16.25
43292;BMP280;28754;47.700;7.924;2023-05-07T01:22:43;91267.38;;;16.26
43292;BMP280;28754;47.700;7.924;2023-05-07T01:25:31;91262.03;;;16.22
43292;BMP280;28754;47.700;7.924;2023-05-07T01:28:20;91262.50;;;16.24
43292;BMP280;28754;47.700;7.924;2023-05-07T01:31:09;91265.03;;;16.16
43292;BMP280;28754;47.700;7.924;2023-05-07T01:33:58;91264.81;;;16.13
43292;BMP280;28754;47.700;7.924;2023-05-07T01:36:47;91272.56;;;16.13
43292;BMP280;28754;47.700;7.924;2023-05-07T01:39:39;91270.28;;;16.11
43292;BMP280;28754;47.700;7.924;2023-05-07T01:42:26;91268.28;;;16.08
43292;BMP280;28754;47.700;7.924;2023-05-07T01:45:13;91266.19;;;15.97
43292;BMP280;28754;47.700;7.924;2023-05-07T01:48:01;91266.44;;;15.87
43292;BMP280;28754;47.700;7.924;2023-05-07T01:50:48;91269.28;;;15.85
43292;BMP280;28754;47.700;7.924;2023-05-07T01:53:37;91266.44;;;15.87
43292;BMP280;28754;47.700;7.924;2023-05-07T01:56:24;91262.03;;;15.87
43292;BMP280;28754;47.700;7.924;2023-05-07T01:59:11;91261.25;;;15.87
43292;BMP280;28754;47.700;7.924;2023-05-07T02:02:00;91263.06;;;15.86
43292;BMP280;28754;47.700;7.924;2023-05-07T02:04:48;91261.53;;;15.85
43292;BMP280;28754;47.700;7.924;2023-05-07T02:07:35;91266.22;;;15.83
43292;BMP280;28754;47.700;7.924;2023-05-07T02:10:22;91264.72;;;15.82
43292;BMP280;28754;47.700;7.924;2023-05-07T02:13:09;91270.44;;;15.79
43292;BMP280;28754;47.700;7.924;2023-05-07T02:15:56;91261.38;;;15.69
43292;BMP280;28754;47.700;7.924;2023-05-07T02:18:44;91265.91;;;15.63
43292;BMP280;28754;47.700;7.924;2023-05-07T02:21:31;91274.09;;;15.65
43292;BMP280;28754;47.700;7.924;2023-05-07T02:24:18;91279.25;;;15.65
43292;BMP280;28754;47.700;7.924;2023-05-07T02:27:04;91273.81;;;15.67
43292;BMP280;28754;47.700;7.924;2023-05-07T02:29:51;91259.00;;;15.59
43292;BMP280;28754;47.700;7.924;2023-05-07T02:32:38;91264.16;;;15.59
43292;BMP280;28754;47.700;7.924;2023-05-07T02:35:25;91259.88;;;15.54
43292;BMP280;28754;47.700;7.924;2023-05-07T02:38:13;91261.03;;;15.48
43292;BMP280;28754;47.700;7.924;2023-05-07T02:41:01;91268.09;;;15.43
43292;BMP280;28754;47.700;7.924;2023-05-07T02:43:47;91254.72;;;15.41
43292;BMP280;28754;47.700;7.924;2023-05-07T02:46:34;91264.00;;;15.42
43292;BMP280;28754;47.700;7.924;2023-05-07T02:49:26;91266.09;;;15.40
43292;BMP280;28754;47.700;7.924;2023-05-07T02:52:12;91264.56;;;15.39
43292;BMP280;28754;47.700;7.924;2023-05-07T02:54:59;91259.88;;;15.41
43292;BMP280;28754;47.700;7.924;2023-05-07T02:57:46;91253.22;;;15.40
43292;BMP280;28754;47.700;7.924;2023-05-07T03:00:33;91260.75;;;15.37
43292;BMP280;28754;47.700;7.924;2023-05-07T03:03:39;91260.38;;;15.30
43292;BMP280;28754;47.700;7.924;2023-05-07T03:06:26;91253.97;;;15.27
43292;BMP280;28754;47.700;7.924;2023-05-07T03:09:13;91251.94;;;15.24
43292;BMP280;28754;47.700;7.924;2023-05-07T03:12:00;91251.56;;;15.17
43292;BMP280;28754;47.700;7.924;2023-05-07T03:14:48;91255.84;;;15.09
43292;BMP280;28754;47.700;7.924;2023-05-07T03:17:35;91251.28;;;15.06
43292;BMP280;28754;47.700;7.924;2023-05-07T03:20:22;91263.69;;;15.04
43292;BMP280;28754;47.700;7.924;2023-05-07T03:23:09;91262.63;;;15.05
43292;BMP280;28754;47.700;7.924;2023-05-07T03:25:56;91264.16;;;15.06
43292;BMP280;28754;47.700;7.924;2023-05-07T03:28:43;91259.75;;;15.06
43292;BMP280;28754;47.700;7.924;2023-05-07T03:31:33;91264.56;;;15.12
43292;BMP280;28754;47.700;7.924;2023-05-07T03:34:21;91254.53;;;15.24
43292;BMP280;28754;47.700;7.924;2023-05-07T03:37:09;91245.84;;;15.34
43292;BMP280;28754;47.700;7.924;2023-05-07T03:39:56;91258.44;;;15.35
43292;BMP280;28754;47.700;7.924;2023-05-07T03:42:42;91250.81;;;15.30
43292;BMP280;28754;47.700;7.924;2023-05-07T03:45:32;91261.72;;;15.27
43292;BMP280;28754;47.700;7.924;2023-05-07T03:48:39;91256.16;;;15.20
43292;BMP280;28754;47.700;7.924;2023-05-07T03:51:27;91270.88;;;15.20
43292;BMP280;28754;47.700;7.924;2023-05-07T03:54:14;91265.72;;;15.20
43292;BMP280;28754;47.700;7.924;2023-05-07T03:57:04;91261.78;;;15.22
43292;BMP280;28754;47.700;7.924;2023-05-07T03:59:51;91255.50;;;15.28
43292;BMP280;28754;47.700;7.924;2023-05-07T04:02:38;91264.88;;;15.38
43292;BMP280;28754;47.700;7.924;2023-05-07T04:05:25;91266.59;;;15.42
43292;BMP280;28754;47.700;7.924;2023-05-07T04:08:17;91274.50;;;15.45
43292;BMP280;28754;47.700;7.924;2023-05-07T04:11:10;91274.31;;;15.42
43292;BMP280;28754;47.700;7.924;2023-05-07T04:14:00;91276.13;;;15.42
43292;BMP280;28754;47.700;7.924;2023-05-07T04:16:47;91274.31;;;15.42
43292;BMP280;28754;47.700;7.924;2023-05-07T04:19:34;91277.94;;;15.41
43292;BMP280;28754;47.700;7.924;2023-05-07T04:28:16;91275.84;;;15.30
43292;BMP280;28754;47.700;7.924;2023-05-07T04:31:03;91280.16;;;15.34
43292;BMP280;28754;47.700;7.924;2023-05-07T04:33:55;91296.88;;;15.37
43292;BMP280;28754;47.700;7.924;2023-05-07T04:36:43;91304.22;;;15.43
43292;BMP280;28754;47.700;7.924;2023-05-07T04:39:33;91309.59;;;15.46
43292;BMP280;28754;47.700;7.924;2023-05-07T04:42:22;91291.22;;;15.48
43292;BMP280;28754;47.700;7.924;2023-05-07T04:45:10;91291.63;;;15.55
43292;BMP280;28754;47.700;7.924;2023-05-07T04:48:01;91299.44;;;15.63
43292;BMP280;28754;47.700;7.924;2023-05-07T04:50:52;91301.94;;;15.68
43292;BMP280;28754;47.700;7.924;2023-05-07T04:53:40;91299.34;;;15.68
43292;BMP280;28754;47.700;7.924;2023-05-07T04:56:28;91300.38;;;15.67
43292;BMP280;28754;47.700;7.924;2023-05-07T04:59:17;91298.28;;;15.69
43292;BMP280;28754;47.700;7.924;2023-05-07T05:02:04;91300.84;;;15.69
43292;BMP280;28754;47.700;7.924;2023-05-07T05:04:51;91307.38;;;15.67
43292;BMP280;28754;47.700;7.924;2023-05-07T05:07:38;91317.69;;;15.67
43292;BMP280;28754;47.700;7.924;2023-05-07T05:10:26;91313.00;;;15.69
43292;BMP280;28754;47.700;7.924;2023-05-07T05:13:12;91319.69;;;15.83
43292;BMP280;28754;47.700;7.924;2023-05-07T05:16:00;91324.94;;;15.91
43292;BMP280;28754;47.700;7.924;2023-05-07T05:18:49;91333.81;;;15.99
43292;BMP280;28754;47.700;7.924;2023-05-07T05:21:39;91329.88;;;16.01
43292;BMP280;28754;47.700;7.924;2023-05-07T05:24:29;91331.13;;;16.04
43292;BMP280;28754;47.700;7.924;2023-05-07T05:27:16;91338.59;;;16.05
43292;BMP280;28754;47.700;7.924;2023-05-07T05:30:04;91342.13;;;16.09
43292;BMP280;28754;47.700;7.924;2023-05-07T05:32:52;91349.22;;;16.17
43292;BMP280;28754;47.700;7.924;2023-05-07T05:35:40;91352.81;;;16.29
43292;BMP280;28754;47.700;7.924;2023-05-07T05:38:31;91346.84;;;16.42
43292;BMP280;28754;47.700;7.924;2023-05-07T05:41:18;91359.69;;;16.47
43292;BMP280;28754;47.700;7.924;2023-05-07T05:44:04;91354.19;;;16.48
43292;BMP280;28754;47.700;7.924;2023-05-07T05:46:51;91362.75;;;16.49
43292;BMP280;28754;47.700;7.924;2023-05-07T05:49:38;91357.72;;;16.52
43292;BMP280;28754;47.700;7.924;2023-05-07T05:52:26;91360.66;;;16.59
43292;BMP280;28754;47.700;7.924;2023-05-07T05:55:15;91371.97;;;16.63
43292;BMP280;28754;47.700;7.924;2023-05-07T05:58:02;91369.75;;;16.70
43292;BMP280;28754;47.700;7.924;2023-05-07T06:00:51;91373.16;;;16.79
43292;BMP280;28754;47.700;7.924;2023-05-07T06:03:39;91373.50;;;16.86
43292;BMP280;28754;47.700;7.924;2023-05-07T06:06:32;91377.94;;;16.85
43292;BMP280;28754;47.700;7.924;2023-05-07T06:09:19;91376.69;;;16.83
43292;BMP280;28754;47.700;7.924;2023-05-07T06:12:06;91379.28;;;16.83
43292;BMP280;28754;47.700;7.924;2023-05-07T06:14:53;91376.31;;;16.76
43292;BMP280;28754;47.700;7.924;2023-05-07T06:17:40;91383.59;;;16.74
43292;BMP280;28754;47.700;7.924;2023-05-07T06:20:29;91381.00;;;16.74
43292;BMP280;28754;47.700;7.924;2023-05-07T06:23:16;91389.44;;;16.80
43292;BMP280;28754;47.700;7.924;2023-05-07T06:26:03;91379.72;;;16.85
43292;BMP280;28754;47.700;7.924;2023-05-07T06:28:55;91387.06;;;16.91
43292;BMP280;28754;47.700;7.924;2023-05-07T06:31:43;91390.94;;;16.94
43292;BMP280;28754;47.700;7.924;2023-05-07T06:34:31;91391.22;;;16.92
43292;BMP280;28754;47.700;7.924;2023-05-07T06:37:18;91396.09;;;16.94
43292;BMP280;28754;47.700;7.924;2023-05-07T06:40:14;91397.13;;;16.93
43292;BMP280;28754;47.700;7.924;2023-05-07T06:43:02;91391.81;;;16.89
43292;BMP280;28754;47.700;7.924;2023-05-07T06:45:59;91385.31;;;16.79
43292;BMP280;28754;47.700;7.924;2023-05-07T06:48:45;91386.19;;;16.74
43292;BMP280;28754;47.700;7.924;2023-05-07T06:51:32;91388.31;;;16.72
43292;BMP280;28754;47.700;7.924;2023-05-07T06:54:23;91393.94;;;16.74
43292;BMP280;28754;47.700;7.924;2023-05-07T06:57:09;91396.91;;;16.81
43292;BMP280;28754;47.700;7.924;2023-05-07T06:59:56;91386.38;;;16.78
43292;BMP280;28754;47.700;7.924;2023-05-07T07:02:43;91389.03;;;16.86
43292;BMP280;28754;47.700;7.924;2023-05-07T07:05:31;91393.97;;;16.96
43292;BMP280;28754;47.700;7.924;2023-05-07T07:08:20;91393.16;;;17.09
43292;BMP280;28754;47.700;7.924;2023-05-07T07:11:08;91390.69;;;17.25
43292;BMP280;28754;47.700;7.924;2023-05-07T07:13:55;91375.56;;;17.41
43292;BMP280;28754;47.700;7.924;2023-05-07T07:16:42;91379.13;;;17.53
43292;BMP280;28754;47.700;7.924;2023-05-07T07:19:29;91382.34;;;17.58
43292;BMP280;28754;47.700;7.924;2023-05-07T07:22:16;91383.88;;;17.59
43292;BMP280;28754;47.700;7.924;2023-05-07T07:25:04;91375.81;;;17.61
43292;BMP280;28754;47.700;7.924;2023-05-07T07:27:51;91376.13;;;17.68
43292;BMP280;28754;47.700;7.924;2023-05-07T07:30:38;91379.19;;;17.70
43292;BMP280;28754;47.700;7.924;2023-05-07T07:33:26;91381.78;;;17.70
43292;BMP280;28754;47.700;7.924;2023-05-07T07:36:17;91386.97;;;17.70
43292;BMP280;28754;47.700;7.924;2023-05-07T07:39:16;91369.13;;;17.60
43292;BMP280;28754;47.700;7.924;2023-05-07T07:42:15;91369.31;;;17.72
43292;BMP280;28754;47.700;7.924;2023-05-07T07:45:06;91372.41;;;17.82
43292;BMP280;28754;47.700;7.924;2023-05-07T07:47:56;91370.72;;;17.78
43292;BMP280;28754;47.700;7.924;2023-05-07T07:50:49;91370.53;;;17.74
43292;BMP280;28754;47.700;7.924;2023-05-07T07:53:40;91383.94;;;17.76
43292;BMP280;28754;47.700;7.924;2023-05-07T07:56:38;91373.88;;;17.75
43292;BMP280;28754;47.700;7.924;2023-05-07T07:59:32;91366.75;;;17.80
43292;BMP280;28754;47.700;7.924;2023-05-07T08:02:30;91379.44;;;17.90
43292;BMP280;28754;47.700;7.924;2023-05-07T08:05:33;91376.53;;;17.91
43292;BMP280;28754;47.700;7.924;2023-05-07T08:08:27;91391.50;;;17.94
43292;BMP280;28754;47.700;7.924;2023-05-07T08:11:21;91386.16;;;17.99
43292;BMP280;28754;47.700;7.924;2023-05-07T08:14:28;91371.22;;;17.96
43292;BMP280;28754;47.700;7.924;2023-05-07T08:17:21;91384.50;;;18.03
43292;BMP280;28754;47.700;7.924;2023-05-07T08:20:11;91383.03;;;18.11
43292;BMP280;28754;47.700;7.924;2023-05-07T08:22:58;91385.16;;;18.17
43292;BMP280;28754;47.700;7.924;2023-05-07T08:25:47;91385.38;;;18.29
43292;BMP280;28754;47.700;7.924;2023-05-07T08:28:35;91390.88;;;18.36
43292;BMP280;28754;47.700;7.924;2023-05-07T08:31:22;91391.63;;;18.36
43292;BMP280;28754;47.700;7.924;2023-05-07T08:34:08;91391.31;;;18.38
43292;BMP280;28754;47.700;7.924;2023-05-07T08:36:58;91393.78;;;18.43
43292;BMP280;28754;47.700;7.924;2023-05-07T08:39:45;91399.44;;;18.53
43292;BMP280;28754;47.700;7.924;2023-05-07T08:42:40;91403.44;;;18.67
43292;BMP280;28754;47.700;7.924;2023-05-07T08:45:32;91405.72;;;18.86
43292;BMP280;28754;47.700;7.924;2023-05-07T08:48:25;91396.25;;;18.90
43292;BMP280;28754;47.700;7.924;2023-05-07T08:51:21;91403.59;;;18.96
43292;BMP280;28754;47.700;7.924;2023-05-07T08:54:10;91405.16;;;18.97
43292;BMP280;28754;47.700;7.924;2023-05-07T08:56:57;91414.75;;;19.05
43292;BMP280;28754;47.700;7.924;2023-05-07T08:59:45;91406.50;;;19.20
43292;BMP280;28754;47.700;7.924;2023-05-07T09:02:32;91404.19;;;19.26
43292;BMP280;28754;47.700;7.924;2023-05-07T09:05:19;91406.19;;;19.46
43292;BMP280;28754;47.700;7.924;2023-05-07T09:08:08;91401.38;;;19.65
43292;BMP280;28754;47.700;7.924;2023-05-07T09:10:55;91397.69;;;19.83
43292;BMP280;28754;47.700;7.924;2023-05-07T09:13:43;91395.69;;;19.88
43292;BMP280;28754;47.700;7.924;2023-05-07T09:16:32;91397.50;;;19.96
43292;BMP280;28754;47.700;7.924;2023-05-07T09:19:25;91394.13;;;19.96
43292;BMP280;28754;47.700;7.924;2023-05-07T09:22:14;91406.22;;;19.92
43292;BMP280;28754;47.700;7.924;2023-05-07T09:25:33;91403.63;;;19.92
43292;BMP280;28754;47.700;7.924;2023-05-07T09:28:26;91410.22;;;19.89
43292;BMP280;28754;47.700;7.924;2023-05-07T09:31:12;91410.25;;;19.81
43292;BMP280;28754;47.700;7.924;2023-05-07T09:34:00;91412.66;;;19.77
43292;BMP280;28754;47.700;7.924;2023-05-07T09:36:49;91414.69;;;19.80
43292;BMP280;28754;47.700;7.924;2023-05-07T09:39:46;91416.50;;;19.80
43292;BMP280;28754;47.700;7.924;2023-05-07T09:42:35;91411.91;;;19.77
43292;BMP280;28754;47.700;7.924;2023-05-07T09:45:28;91412.38;;;19.79
43292;BMP280;28754;47.700;7.924;2023-05-07T09:48:18;91416.94;;;19.82
43292;BMP280;28754;47.700;7.924;2023-05-07T09:51:24;91412.94;;;19.76
43292;BMP280;28754;47.700;7.924;2023-05-07T09:54:15;91407.47;;;19.86
43292;BMP280;28754;47.700;7.924;2023-05-07T09:57:10;91405.59;;;19.95
43292;BMP280;28754;47.700;7.924;2023-05-07T10:00:01;91417.63;;;20.07
43292;BMP280;28754;47.700;7.924;2023-05-07T10:02:57;91418.94;;;20.22
43292;BMP280;28754;47.700;7.924;2023-05-07T10:05:54;91428.25;;;20.23
43292;BMP280;28754;47.700;7.924;2023-05-07T10:08:43;91416.53;;;20.17
43292;BMP280;28754;47.700;7.924;2023-05-07T10:11:35;91421.84;;;20.20
43292;BMP280;28754;47.700;7.924;2023-05-07T10:14:23;91420.41;;;20.31
43292;BMP280;28754;47.700;7.924;2023-05-07T10:17:12;91415.63;;;20.41
43292;BMP280;28754;47.700;7.924;2023-05-07T10:20:03;91404.09;;;20.51
43292;BMP280;28754;47.700;7.924;2023-05-07T10:22:54;91405.88;;;20.59
43292;BMP280;28754;47.700;7.924;2023-05-07T10:25:48;91402.00;;;20.73
43292;BMP280;28754;47.700;7.924;2023-05-07T10:28:49;91407.66;;;20.95
43292;BMP280;28754;47.700;7.924;2023-05-07T10:34:44;91407.03;;;20.98
43292;BMP280;28754;47.700;7.924;2023-05-07T10:37:33;91418.03;;;20.83
43292;BMP280;28754;47.700;7.924;2023-05-07T10:40:21;91404.66;;;20.65
43292;BMP280;28754;47.700;7.924;2023-05-07T10:43:09;91417.28;;;20.46
43292;BMP280;28754;47.700;7.924;2023-05-07T10:46:20;91423.66;;;20.28
43292;BMP280;28754;47.700;7.924;2023-05-07T10:49:31;91409.47;;;20.17
43292;BMP280;28754;47.700;7.924;2023-05-07T10:52:25;91402.88;;;20.20
43292;BMP280;28754;47.700;7.924;2023-05-07T10:55:33;91406.16;;;20.08
43292;BMP280;28754;47.700;7.924;2023-05-07T10:58:42;91397.66;;;19.91
43292;BMP280;28754;47.700;7.924;2023-05-07T11:05:23;91399.53;;;19.74
43292;BMP280;28754;47.700;7.924;2023-05-07T11:08:22;91386.25;;;19.67
43292;BMP280;28754;47.700;7.924;2023-05-07T11:11:47;91394.22;;;19.54
43292;BMP280;28754;47.700;7.924;2023-05-07T11:15:11;91397.66;;;19.29
43292;BMP280;28754;47.700;7.924;2023-05-07T11:17:59;91403.78;;;19.16
43292;BMP280;28754;47.700;7.924;2023-05-07T11:20:55;91396.13;;;19.03
43292;BMP280;28754;47.700;7.924;2023-05-07T11:24:10;91406.81;;;18.93
43292;BMP280;28754;47.700;7.924;2023-05-07T11:27:05;91401.44;;;18.90
43292;BMP280;28754;47.700;7.924;2023-05-07T11:29:53;91387.09;;;18.92
43292;BMP280;28754;47.700;7.924;2023-05-07T11:32:39;91387.09;;;18.92
43292;BMP280;28754;47.700;7.924;2023-05-07T11:35:27;91405.44;;;19.04
43292;BMP280;28754;47.700;7.924;2023-05-07T11:38:14;91399.47;;;19.20
43292;BMP280;28754;47.700;7.924;2023-05-07T11:41:02;91414.91;;;19.33
43292;BMP280;28754;47.700;7.924;2023-05-07T11:43:56;91417.00;;;19.48
43292;BMP280;28754;47.700;7.924;2023-05-07T11:46:45;91411.50;;;19.50
43292;BMP280;28754;47.700;7.924;2023-05-07T11:49:32;91417.16;;;19.52
43292;BMP280;28754;47.700;7.924;2023-05-07T11:52:22;91415.63;;;19.59
43292;BMP280;28754;47.700;7.924;2023-05-07T11:55:09;91401.69;;;19.72
43292;BMP280;28754;47.700;7.924;2023-05-07T11:57:56;91409.91;;;19.82
43292;BMP280;28754;47.700;7.924;2023-05-07T12:00:53;91413.13;;;19.88
43292;BMP280;28754;47.700;7.924;2023-05-07T12:03:41;91419.22;;;19.92
43292;BMP280;28754;47.700;7.924;2023-05-07T12:06:36;91407.88;;;19.96
43292;BMP280;28754;47.700;7.924;2023-05-07T12:09:24;91415.88;;;19.91
43292;BMP280;28754;47.700;7.924;2023-05-07T12:12:11;91416.81;;;19.70
43292;BMP280;28754;47.700;7.924;2023-05-07T12:15:00;91420.84;;;19.42
43292;BMP280;28754;47.700;7.924;2023-05-07T12:17:47;91426.97;;;19.13
43292;BMP280;28754;47.700;7.924;2023-05-07T12:20:36;91426.94;;;18.88
43292;BMP280;28754;47.700;7.924;2023-05-07T12:23:23;91435.31;;;18.68
43292;BMP280;28754;47.700;7.924;2023-05-07T12:26:10;91445.94;;;18.50
43292;BMP280;28754;47.700;7.924;2023-05-07T12:29:00;91453.69;;;18.33
43292;BMP280;28754;47.700;7.924;2023-05-07T12:31:46;91458.94;;;18.11
43292;BMP280;28754;47.700;7.924;2023-05-07T12:34:42;91468.69;;;17.84
43292;BMP280;28754;47.700;7.924;2023-05-07T12:37:36;91486.06;;;17.62
43292;BMP280;28754;47.700;7.924;2023-05-07T12:40:40;91487.44;;;17.38
43292;BMP280;28754;47.700;7.924;2023-05-07T12:43:45;91489.75;;;17.18
43292;BMP280;28754;47.700;7.924;2023-05-07T12:46:41;91478.16;;;17.02
43292;BMP280;28754;47.700;7.924;2023-05-07T12:49:38;91477.13;;;17.03
43292;BMP280;28754;47.700;7.924;2023-05-07T12:52:29;91478.97;;;17.11
43292;BMP280;28754;47.700;7.924;2023-05-07T12:55:19;91470.00;;;17.21
43292;BMP280;28754;47.700;7.924;2023-05-07T12:58:16;91468.69;;;17.32
43292;BMP280;28754;47.700;7.924;2023-05-07T13:01:18;91459.72;;;17.38
43292;BMP280;28754;47.700;7.924;2023-05-07T13:04:35;91459.16;;;17.41
43292;BMP280;28754;47.700;7.924;2023-05-07T13:07:25;91452.44;;;17.40
43292;BMP280;28754;47.700;7.924;2023-05-07T13:10:12;91440.91;;;17.46
43292;BMP280;28754;47.700;7.924;2023-05-07T13:13:00;91421.75;;;17.47
43292;BMP280;28754;47.700;7.924;2023-05-07T13:15:55;91414.78;;;17.56
43292;BMP280;28754;47.700;7.924;2023-05-07T13:18:48;91413.88;;;17.60
43292;BMP280;28754;47.700;7.924;2023-05-07T13:21:38;91407.06;;;17.64
43292;BMP280;28754;47.700;7.924;2023-05-07T13:24:28;91417.00;;;17.71
43292;BMP280;28754;47.700;7.924;2023-05-07T13:27:26;91424.78;;;17.79
43292;BMP280;28754;47.700;7.924;2023-05-07T13:30:50;91413.09;;;17.82
43292;BMP280;28754;47.700;7.924;2023-05-07T13:33:48;91417.88;;;17.96
43292;BMP280;28754;47.700;7.924;2023-05-07T13:41:10;91422.13;;;18.31
43292;BMP280;28754;47.700;7.924;2023-05-07T13:44:38;91407.19;;;18.45
43292;BMP280;28754;47.700;7.924;2023-05-07T13:47:41;91400.66;;;18.64
43292;BMP280;28754;47.700;7.924;2023-05-07T13:50:52;91399.28;;;18.66
43292;BMP280;28754;47.700;7.924;2023-05-07T13:53:39;91403.88;;;18.69
43292;BMP280;28754;47.700;7.924;2023-05-07T13:56:26;91405.56;;;18.74
43292;BMP280;28754;47.700;7.924;2023-05-07T13:59:44;91402.34;;;18.85
43292;BMP280;28754;47.700;7.924;2023-05-07T14:02:33;91403.00;;;18.99
43292;BMP280;28754;47.700;7.924;2023-05-07T14:05:20;91393.53;;;19.20
43292;BMP280;28754;47.700;7.924;2023-05-07T14:08:09;91400.38;;;19.41
43292;BMP280;28754;47.700;7.924;2023-05-07T14:14:32;91408.09;;;19.74
43292;BMP280;28754;47.700;7.924;2023-05-07T14:18:17;91391.41;;;19.75
43292;BMP280;28754;47.700;7.924;2023-05-07T14:22:07;91400.41;;;19.78
43292;BMP280;28754;47.700;7.924;2023-05-07T14:25:05;91403.50;;;19.80
43292;BMP280;28754;47.700;7.924;2023-05-07T14:27:52;91403.31;;;19.93
43292;BMP280;28754;47.700;7.924;2023-05-07T14:30:42;91413.41;;;19.86
43292;BMP280;28754;47.700;7.924;2023-05-07T14:33:29;91413.00;;;19.67
43292;BMP280;28754;47.700;7.924;2023-05-07T14:36:25;91413.13;;;19.71
43292;BMP280;28754;47.700;7.924;2023-05-07T14:39:14;91413.88;;;19.80
43292;BMP280;28754;47.700;7.924;2023-05-07T14:42:05;91410.03;;;19.94
43292;BMP280;28754;47.700;7.924;2023-05-07T14:44:57;91397.28;;;20.09
43292;BMP280;28754;47.700;7.924;2023-05-07T14:48:07;91418.94;;;20.22
43292;BMP280;28754;47.700;7.924;2023-05-07T14:50:57;91415.94;;;20.11
43292;BMP280;28754;47.700;7.924;2023-05-07T14:53:52;91411.81;;;20.10
43292;BMP280;28754;47.700;7.924;2023-05-07T14:56:40;91419.94;;;20.00
43292;BMP280;28754;47.700;7.924;2023-05-07T14:59:39;91415.41;;;19.89
43292;BMP280;28754;47.700;7.924;2023-05-07T15:03:23;91433.75;;;19.84
43292;BMP280;28754;47.700;7.924;2023-05-07T15:06:10;91435.75;;;19.70
43292;BMP280;28754;47.700;7.924;2023-05-07T15:08:57;91430.59;;;19.54
43292;BMP280;28754;47.700;7.924;2023-05-07T15:11:44;91427.88;;;19.42
43292;BMP280;28754;47.700;7.924;2023-05-07T15:14:30;91443.28;;;19.38
43292;BMP280;28754;47.700;7.924;2023-05-07T15:17:17;91432.75;;;19.35
43292;BMP280;28754;47.700;7.924;2023-05-07T15:20:07;91433.66;;;19.39
43292;BMP280;28754;47.700;7.924;2023-05-07T15:22:59;91436.41;;;19.42
43292;BMP280;28754;47.700;7.924;2023-05-07T15:26:07;91426.78;;;19.34
43292;BMP280;28754;47.700;7.924;2023-05-07T15:28:54;91430.16;;;19.35
43292;BMP280;28754;47.700;7.924;2023-05-07T15:31:49;91436.25;;;19.30
43292;BMP280;28754;47.700;7.924;2023-05-07T15:34:39;91428.81;;;19.21
43292;BMP280;28754;47.700;7.924;2023-05-07T15:37:31;91433.84;;;19.17
43292;BMP280;28754;47.700;7.924;2023-05-07T15:40:18;91435.69;;;19.17
43292;BMP280;28754;47.700;7.924;2023-05-07T15:43:08;91439.03;;;19.17
43292;BMP280;28754;47.700;7.924;2023-05-07T15:45:55;91440.72;;;19.13
43292;BMP280;28754;47.700;7.924;2023-05-07T15:48:50;91426.50;;;19.11
43292;BMP280;28754;47.700;7.924;2023-05-07T15:51:42;91433.38;;;19.07
43292;BMP280;28754;47.700;7.924;2023-05-07T15:54:40;91442.53;;;19.04
43292;BMP280;28754;47.700;7.924;2023-05-07T15:57:29;91447.44;;;18.97
43292;BMP280;28754;47.700;7.924;2023-05-07T16:00:17;91454.56;;;18.92
43292;BMP280;28754;47.700;7.924;2023-05-07T16:03:09;91446.16;;;18.78
43292;BMP280;28754;47.700;7.924;2023-05-07T16:05:59;91445.97;;;18.66
43292;BMP280;28754;47.700;7.924;2023-05-07T16:08:48;91449.75;;;18.44
43292;BMP280;28754;47.700;7.924;2023-05-07T16:11:35;91453.94;;;18.23
43292;BMP280;28754;47.700;7.924;2023-05-07T16:14:22;91456.88;;;18.00
43292;BMP280;28754;47.700;7.924;2023-05-07T16:17:09;91463.09;;;17.90
43292;BMP280;28754;47.700;7.924;2023-05-07T16:19:56;91470.22;;;17.85
43292;BMP280;28754;47.700;7.924;2023-05-07T16:22:44;91463.19;;;17.86
43292;BMP280;28754;47.700;7.924;2023-05-07T16:25:31;91467.53;;;17.90
43292;BMP280;28754;47.700;7.924;2023-05-07T16:28:18;91461.72;;;17.93
43292;BMP280;28754;47.700;7.924;2023-05-07T16:31:08;91455.38;;;17.99
43292;BMP280;28754;47.700;7.924;2023-05-07T16:33:55;91463.22;;;18.07
43292;BMP280;28754;47.700;7.924;2023-05-07T16:36:41;91465.66;;;18.12
43292;BMP280;28754;47.700;7.924;2023-05-07T16:39:30;91468.09;;;18.17
43292;BMP280;28754;47.700;7.924;2023-05-07T16:42:17;91473.94;;;18.23
43292;BMP280;28754;47.700;7.924;2023-05-07T16:45:05;91468.44;;;18.24
43292;BMP280;28754;47.700;7.924;2023-05-07T16:47:52;91483.06;;;18.20
43292;BMP280;28754;47.700;7.924;2023-05-07T16:50:38;91474.50;;;18.20
43292;BMP280;28754;47.700;7.924;2023-05-07T16:53:25;91483.22;;;18.23